createdAt,value
2023-03-23T15:58:59.525Z,3.40
2023-03-23T16:01:29.448Z,3.90
2023-03-23T16:03:58.879Z,2.73
2023-03-23T16:06:28.281Z,2.40
2023-03-23T16:08:56.421Z,6.00
2023-03-23T16:11:25.604Z,2.27
2023-03-23T16:13:52.808Z,3.10
2023-03-23T16:16:27.114Z,5.03
2023-03-23T16:18:54.712Z,5.03
2023-03-23T16:21:22.734Z,3.63
2023-03-23T16:23:50.471Z,3.33
2023-03-23T16:26:18.906Z,2.50
2023-03-23T16:28:46.116Z,2.63
2023-03-23T16:31:14.191Z,2.33
2023-03-23T16:33:41.715Z,4.57
2023-03-23T16:36:12.230Z,3.27
2023-03-23T16:38:49.257Z,2.57
2023-03-23T16:41:18.168Z,4.00
2023-03-23T16:43:45.750Z,2.83
2023-03-23T16:46:13.899Z,4.20
2023-03-23T16:48:41.172Z,4.63
2023-03-23T16:51:09.952Z,4.27
2023-03-23T16:53:37.449Z,3.30
2023-03-23T16:56:05.403Z,6.77
2023-03-23T16:58:32.760Z,5.10
2023-03-23T17:01:01.902Z,3.30
2023-03-23T17:03:29.512Z,5.80
2023-03-23T17:05:59.106Z,3.37
2023-03-23T17:08:26.780Z,7.27
2023-03-23T17:10:54.055Z,2.80
2023-03-23T17:13:21.422Z,3.73
2023-03-23T17:15:53.131Z,4.30
2023-03-23T17:18:20.971Z,3.27
2023-03-23T17:20:49.691Z,3.80
2023-03-23T17:23:17.534Z,5.37
2023-03-23T17:25:47.029Z,3.67
2023-03-23T17:28:14.256Z,5.60
2023-03-23T17:30:43.998Z,4.03
2023-03-23T17:33:12.330Z,5.10
2023-03-23T17:35:39.892Z,5.27
2023-03-23T17:38:07.235Z,3.30
2023-03-23T17:40:34.873Z,6.57
2023-03-23T17:43:02.120Z,4.80
2023-03-23T17:45:29.327Z,5.90
2023-03-23T17:47:56.550Z,5.20
2023-03-23T17:50:23.759Z,3.67
2023-03-23T17:52:51.020Z,5.70
2023-03-23T17:55:18.263Z,8.40
2023-03-23T17:57:46.083Z,3.87
2023-03-23T18:00:14.435Z,3.70
2023-03-23T18:02:41.698Z,3.43
2023-03-23T18:05:09.714Z,3.50
2023-03-23T18:07:37.119Z,4.10
2023-03-23T18:10:11.566Z,6.13
2023-03-23T18:12:40.394Z,2.70
2023-03-23T18:15:09.016Z,5.23
2023-03-23T18:17:36.300Z,4.53
2023-03-23T18:20:04.906Z,4.80
2023-03-23T18:22:32.739Z,3.10
2023-03-23T18:25:02.452Z,5.17
2023-03-23T18:27:29.785Z,3.70
2023-03-23T18:29:58.327Z,3.13
2023-03-23T18:32:26.828Z,2.33
2023-03-23T18:34:56.121Z,3.83
2023-03-23T18:37:23.925Z,3.93
2023-03-23T18:39:51.417Z,5.30
2023-03-23T18:42:18.957Z,3.80
2023-03-23T18:44:46.771Z,3.67
2023-03-23T18:47:14.102Z,5.63
2023-03-23T18:49:41.636Z,4.57
2023-03-23T18:52:08.922Z,3.67
2023-03-23T18:54:38.090Z,4.10
2023-03-23T18:57:05.572Z,4.67
2023-03-23T18:59:34.834Z,3.93
2023-03-23T19:02:03.339Z,3.60
2023-03-23T19:04:34.109Z,3.13
2023-03-23T19:07:03.284Z,4.33
2023-03-23T19:09:32.056Z,2.80
2023-03-23T19:11:59.705Z,2.47
2023-03-23T19:14:27.309Z,4.50
2023-03-23T19:16:55.125Z,4.47
2023-03-23T19:19:24.638Z,4.57
2023-03-23T19:21:53.482Z,2.27
2023-03-23T19:24:21.592Z,3.27
2023-03-23T19:26:48.985Z,3.57
2023-03-23T19:29:26.857Z,2.70
2023-03-23T19:31:55.858Z,5.50
2023-03-23T19:34:26.666Z,2.53
2023-03-23T19:37:03.213Z,7.40
2023-03-23T19:39:33.923Z,2.10
2023-03-23T19:42:01.608Z,3.60
2023-03-23T19:44:29.140Z,4.47
2023-03-23T19:46:56.629Z,5.17
2023-03-23T19:49:25.264Z,3.23
2023-03-23T19:52:08.869Z,4.33
2023-03-23T19:54:39.593Z,2.80
2023-03-23T19:57:07.966Z,3.43
2023-03-23T19:59:36.315Z,3.73
2023-03-23T20:02:04.416Z,4.70
2023-03-23T20:04:31.897Z,2.53
2023-03-23T20:07:00.420Z,2.00
2023-03-23T20:09:28.518Z,5.10
2023-03-23T20:11:56.018Z,3.53
2023-03-23T20:14:23.778Z,7.13
2023-03-23T20:16:52.754Z,2.93
2023-03-23T20:19:21.341Z,3.37
2023-03-23T20:21:49.242Z,4.33
2023-03-23T20:24:16.929Z,4.13
2023-03-23T20:26:44.871Z,3.13
2023-03-23T20:29:12.865Z,3.33
2023-03-23T20:31:41.378Z,2.93
2023-03-23T20:34:11.639Z,6.30
2023-03-23T20:36:42.146Z,3.43
2023-03-23T20:39:16.115Z,3.80
2023-03-23T20:41:43.601Z,4.73
2023-03-23T20:44:16.210Z,5.73
2023-03-23T20:46:45.236Z,4.27
2023-03-23T20:49:13.805Z,6.17
2023-03-23T20:51:41.238Z,4.70
2023-03-23T20:54:09.964Z,5.83
2023-03-23T20:56:40.279Z,5.43
2023-03-23T20:59:08.384Z,5.40
2023-03-23T21:01:36.864Z,5.60
2023-03-23T21:04:04.261Z,5.97
2023-03-23T21:06:32.885Z,6.47
2023-03-23T21:09:00.233Z,5.37
2023-03-23T21:11:27.713Z,5.90
2023-03-23T21:13:55.641Z,6.53
2023-03-23T21:16:24.219Z,7.57
2023-03-23T21:18:52.700Z,6.10
2023-03-23T21:21:20.187Z,6.83
2023-03-23T21:23:52.578Z,7.93
2023-03-23T21:26:23.284Z,7.60
2023-03-23T21:28:53.762Z,5.83
2023-03-23T21:31:23.249Z,6.60
2023-03-23T21:33:51.360Z,7.70
2023-03-23T21:36:18.703Z,8.30
2023-03-23T21:38:49.860Z,8.17
2023-03-23T21:41:17.339Z,8.03
2023-03-23T21:43:45.740Z,11.93
2023-03-23T21:46:18.068Z,9.50
2023-03-23T21:48:50.735Z,9.43
2023-03-23T21:51:24.881Z,10.70
2023-03-23T21:53:54.088Z,12.83
2023-03-23T21:56:23.419Z,10.53
2023-03-23T21:58:51.718Z,11.90
2023-03-23T22:01:19.265Z,9.90
2023-03-23T22:04:06.272Z,11.30
2023-03-23T22:06:52.206Z,12.73
2023-03-23T22:09:19.417Z,12.63
2023-03-23T22:11:46.719Z,11.37
2023-03-23T22:14:13.879Z,11.90
2023-03-23T22:16:41.515Z,12.23
2023-03-23T22:19:08.723Z,10.30
2023-03-23T22:21:36.578Z,10.80
2023-03-23T22:24:04.267Z,9.60
2023-03-23T22:26:31.688Z,13.23
2023-03-23T22:29:00.379Z,11.77
2023-03-23T22:31:30.275Z,11.10
2023-03-23T22:33:57.827Z,11.43
2023-03-23T22:36:27.126Z,7.13
2023-03-23T22:38:55.506Z,10.00
2023-03-23T22:41:27.520Z,10.37
2023-03-23T22:43:55.862Z,8.63
2023-03-23T22:46:24.933Z,8.43
2023-03-23T22:48:52.928Z,7.07
2023-03-23T22:51:21.836Z,9.40
2023-03-23T22:53:49.814Z,7.30
2023-03-23T22:56:18.205Z,7.60
2023-03-23T22:58:45.821Z,9.03
2023-03-23T23:01:17.364Z,8.70
2023-03-23T23:03:44.867Z,6.70
2023-03-23T23:06:13.558Z,6.73
2023-03-23T23:08:41.444Z,8.30
2023-03-23T23:11:12.419Z,7.23
2023-03-23T23:13:41.229Z,6.40
2023-03-23T23:16:10.327Z,4.97
2023-03-23T23:18:38.442Z,5.93
2023-03-23T23:21:08.418Z,4.80
2023-03-23T23:23:36.362Z,6.40
2023-03-23T23:26:04.529Z,4.40
2023-03-23T23:28:32.071Z,4.00
2023-03-23T23:30:59.553Z,5.33
2023-03-23T23:33:26.928Z,5.13
2023-03-23T23:35:54.417Z,4.13
2023-03-23T23:38:21.896Z,5.37
2023-03-23T23:40:49.876Z,7.43
2023-03-23T23:43:17.959Z,5.10
2023-03-23T23:45:45.281Z,3.03
2023-03-23T23:48:12.594Z,6.63
2023-03-23T23:50:40.084Z,7.87
2023-03-23T23:53:09.666Z,3.90
2023-03-23T23:55:38.387Z,5.80
2023-03-23T23:58:05.624Z,5.70
